sensor_id;sensor_type;location;lat;lon;timestamp;temperature;humidity
14049;DHT22;7099;53.922;10.728;2024-02-26T00:02:23;2.70;99.90
14049;DHT22;7099;53.922;10.728;2024-02-26T00:06:29;2.70;99.90
14049;DHT22;7099;53.922;10.728;2024-02-26T00:10:35;2.60;99.90
14049;DHT22;7099;53.922;10.728;2024-02-26T00:14:40;2.60;99.90
14049;DHT22;7099;53.922;10.728;2024-02-26T00:18:46;2.60;99.90
14049;DHT22;7099;53.922;10.728;2024-02-26T00:22:54;2.50;99.90
14049;DHT22;7099;53.922;10.728;2024-02-26T00:27:00;2.50;99.90
14049;DHT22;7099;53.922;10.728;2024-02-26T00:31:05;2.40;99.90
14049;DHT22;7099;53.922;10.728;2024-02-26T00:35:11;2.40;99.90
14049;DHT22;7099;53.922;10.728;2024-02-26T00:39:16;2.30;99.90
14049;DHT22;7099;53.922;10.728;2024-02-26T00:43:22;2.30;99.90
14049;DHT22;7099;53.922;10.728;2024-02-26T00:47:27;2.30;99.90
14049;DHT22;7099;53.922;10.728;2024-02-26T00:51:32;2.30;99.90
14049;DHT22;7099;53.922;10.728;2024-02-26T00:55:38;2.20;99.90
14049;DHT22;7099;53.922;10.728;2024-02-26T00:59:43;2.20;99.90
14049;DHT22;7099;53.922;10.728;2024-02-26T01:03:49;2.20;99.90
14049;DHT22;7099;53.922;10.728;2024-02-26T01:07:54;2.20;99.90
14049;DHT22;7099;53.922;10.728;2024-02-26T01:12:00;2.20;99.90
14049;DHT22;7099;53.922;10.728;2024-02-26T01:16:07;2.20;99.90
14049;DHT22;7099;53.922;10.728;2024-02-26T01:20:12;2.20;99.90
14049;DHT22;7099;53.922;10.728;2024-02-26T01:24:18;2.10;99.90
14049;DHT22;7099;53.922;10.728;2024-02-26T01:28:23;2.10;99.90
14049;DHT22;7099;53.922;10.728;2024-02-26T01:32:29;2.10;99.90
14049;DHT22;7099;53.922;10.728;2024-02-26T01:36:35;2.00;99.90
14049;DHT22;7099;53.922;10.728;2024-02-26T01:40:41;2.00;99.90
14049;DHT22;7099;53.922;10.728;2024-02-26T01:44:46;2.00;99.90
14049;DHT22;7099;53.922;10.728;2024-02-26T01:48:52;1.90;99.90
14049;DHT22;7099;53.922;10.728;2024-02-26T01:52:58;1.90;99.90
14049;DHT22;7099;53.922;10.728;2024-02-26T01:57:03;1.90;99.90
14049;DHT22;7099;53.922;10.728;2024-02-26T02:01:10;1.80;99.90
14049;DHT22;7099;53.922;10.728;2024-02-26T02:05:19;1.80;99.90
14049;DHT22;7099;53.922;10.728;2024-02-26T02:09:26;1.70;99.90
14049;DHT22;7099;53.922;10.728;2024-02-26T02:13:33;1.70;99.90
14049;DHT22;7099;53.922;10.728;2024-02-26T02:17:38;1.70;99.90
14049;DHT22;7099;53.922;10.728;2024-02-26T02:21:44;1.70;99.90
14049;DHT22;7099;53.922;10.728;2024-02-26T02:25:49;1.60;99.90
14049;DHT22;7099;53.922;10.728;2024-02-26T02:29:54;1.60;99.90
14049;DHT22;7099;53.922;10.728;2024-02-26T02:34:00;1.60;99.90
14049;DHT22;7099;53.922;10.728;2024-02-26T02:38:06;1.50;99.90
14049;DHT22;7099;53.922;10.728;2024-02-26T02:42:12;1.50;99.90
14049;DHT22;7099;53.922;10.728;2024-02-26T02:46:17;1.40;99.90
14049;DHT22;7099;53.922;10.728;2024-02-26T02:50:24;1.40;99.90
14049;DHT22;7099;53.922;10.728;2024-02-26T02:54:30;1.40;99.90
14049;DHT22;7099;53.922;10.728;2024-02-26T02:58:35;1.40;99.90
14049;DHT22;7099;53.922;10.728;2024-02-26T03:02:41;1.40;99.90
14049;DHT22;7099;53.922;10.728;2024-02-26T03:06:48;1.30;99.90
14049;DHT22;7099;53.922;10.728;2024-02-26T03:10:53;1.30;99.90
14049;DHT22;7099;53.922;10.728;2024-02-26T03:14:59;1.30;99.90
14049;DHT22;7099;53.922;10.728;2024-02-26T03:19:09;1.20;99.90
14049;DHT22;7099;53.922;10.728;2024-02-26T03:23:15;1.20;99.90
14049;DHT22;7099;53.922;10.728;2024-02-26T03:27:21;1.20;99.90
14049;DHT22;7099;53.922;10.728;2024-02-26T03:31:27;1.10;99.90
14049;DHT22;7099;53.922;10.728;2024-02-26T03:35:32;1.10;99.90
14049;DHT22;7099;53.922;10.728;2024-02-26T03:39:38;1.10;99.90
14049;DHT22;7099;53.922;10.728;2024-02-26T03:43:44;1.10;99.90
14049;DHT22;7099;53.922;10.728;2024-02-26T03:47:50;1.00;99.90
14049;DHT22;7099;53.922;10.728;2024-02-26T03:51:56;1.00;99.90
14049;DHT22;7099;53.922;10.728;2024-02-26T03:56:04;1.00;99.90
14049;DHT22;7099;53.922;10.728;2024-02-26T04:00:11;0.90;99.90
14049;DHT22;7099;53.922;10.728;2024-02-26T04:04:17;0.90;99.90
14049;DHT22;7099;53.922;10.728;2024-02-26T04:08:23;0.90;99.90
14049;DHT22;7099;53.922;10.728;2024-02-26T04:12:28;0.90;99.90
14049;DHT22;7099;53.922;10.728;2024-02-26T04:16:35;0.90;99.90
14049;DHT22;7099;53.922;10.728;2024-02-26T04:20:43;0.80;99.90
14049;DHT22;7099;53.922;10.728;2024-02-26T04:24:49;0.80;99.90
14049;DHT22;7099;53.922;10.728;2024-02-26T04:28:54;0.80;99.90
14049;DHT22;7099;53.922;10.728;2024-02-26T04:33:00;0.70;99.90
14049;DHT22;7099;53.922;10.728;2024-02-26T04:37:06;0.70;99.90
14049;DHT22;7099;53.922;10.728;2024-02-26T04:41:11;0.70;99.90
14049;DHT22;7099;53.922;10.728;2024-02-26T04:45:17;0.70;99.90
14049;DHT22;7099;53.922;10.728;2024-02-26T04:49:23;0.70;99.90
14049;DHT22;7099;53.922;10.728;2024-02-26T04:53:28;0.60;99.90
14049;DHT22;7099;53.922;10.728;2024-02-26T04:57:34;0.60;99.90
14049;DHT22;7099;53.922;10.728;2024-02-26T05:01:39;0.60;99.90
14049;DHT22;7099;53.922;10.728;2024-02-26T05:05:45;0.60;99.90
14049;DHT22;7099;53.922;10.728;2024-02-26T05:09:51;0.60;99.90
14049;DHT22;7099;53.922;10.728;2024-02-26T05:13:57;0.60;99.90
14049;DHT22;7099;53.922;10.728;2024-02-26T05:18:03;0.60;99.90
14049;DHT22;7099;53.922;10.728;2024-02-26T05:22:09;0.60;99.90
14049;DHT22;7099;53.922;10.728;2024-02-26T05:26:20;0.60;99.90
14049;DHT22;7099;53.922;10.728;2024-02-26T05:30:26;0.60;99.90
14049;DHT22;7099;53.922;10.728;2024-02-26T05:34:33;0.60;99.90
14049;DHT22;7099;53.922;10.728;2024-02-26T05:38:39;0.60;99.90
14049;DHT22;7099;53.922;10.728;2024-02-26T05:42:44;0.60;99.90
14049;DHT22;7099;53.922;10.728;2024-02-26T05:46:50;0.60;99.90
14049;DHT22;7099;53.922;10.728;2024-02-26T05:50:55;0.60;99.90
14049;DHT22;7099;53.922;10.728;2024-02-26T05:55:00;0.60;99.90
14049;DHT22;7099;53.922;10.728;2024-02-26T05:59:06;0.60;99.90
14049;DHT22;7099;53.922;10.728;2024-02-26T06:03:11;0.60;99.90
14049;DHT22;7099;53.922;10.728;2024-02-26T06:07:16;0.60;99.90
14049;DHT22;7099;53.922;10.728;2024-02-26T06:11:22;0.60;99.90
14049;DHT22;7099;53.922;10.728;2024-02-26T06:15:28;0.60;99.90
14049;DHT22;7099;53.922;10.728;2024-02-26T06:19:33;0.60;99.90
14049;DHT22;7099;53.922;10.728;2024-02-26T06:23:39;0.60;99.90
14049;DHT22;7099;53.922;10.728;2024-02-26T06:27:47;0.70;99.90
14049;DHT22;7099;53.922;10.728;2024-02-26T06:31:52;0.70;99.90
14049;DHT22;7099;53.922;10.728;2024-02-26T06:35:57;0.70;99.90
14049;DHT22;7099;53.922;10.728;2024-02-26T06:40:03;0.70;99.90
14049;DHT22;7099;53.922;10.728;2024-02-26T06:44:09;0.70;99.90
14049;DHT22;7099;53.922;10.728;2024-02-26T06:48:15;0.70;99.90
14049;DHT22;7099;53.922;10.728;2024-02-26T06:52:20;0.80;99.90
14049;DHT22;7099;53.922;10.728;2024-02-26T06:56:25;0.80;99.90
14049;DHT22;7099;53.922;10.728;2024-02-26T07:00:31;0.80;99.90
14049;DHT22;7099;53.922;10.728;2024-02-26T07:04:36;0.80;99.90
14049;DHT22;7099;53.922;10.728;2024-02-26T07:08:42;0.80;99.90
14049;DHT22;7099;53.922;10.728;2024-02-26T07:12:47;0.90;99.90
14049;DHT22;7099;53.922;10.728;2024-02-26T07:16:53;0.90;99.90
14049;DHT22;7099;53.922;10.728;2024-02-26T07:21:02;1.00;99.90
14049;DHT22;7099;53.922;10.728;2024-02-26T07:25:09;1.00;99.90
14049;DHT22;7099;53.922;10.728;2024-02-26T07:29:18;1.10;99.90
14049;DHT22;7099;53.922;10.728;2024-02-26T07:33:23;1.10;99.90
14049;DHT22;7099;53.922;10.728;2024-02-26T07:37:30;1.20;99.90
14049;DHT22;7099;53.922;10.728;2024-02-26T07:41:35;1.20;99.90
14049;DHT22;7099;53.922;10.728;2024-02-26T07:45:41;1.30;99.90
14049;DHT22;7099;53.922;10.728;2024-02-26T07:49:47;1.30;99.90
14049;DHT22;7099;53.922;10.728;2024-02-26T07:53:53;1.40;99.90
14049;DHT22;7099;53.922;10.728;2024-02-26T07:57:58;1.50;99.90
14049;DHT22;7099;53.922;10.728;2024-02-26T08:02:04;1.60;99.90
14049;DHT22;7099;53.922;10.728;2024-02-26T08:06:11;1.60;99.90
14049;DHT22;7099;53.922;10.728;2024-02-26T08:10:17;1.60;99.90
14049;DHT22;7099;53.922;10.728;2024-02-26T08:14:22;1.70;99.90
14049;DHT22;7099;53.922;10.728;2024-02-26T08:18:28;1.80;99.90
14049;DHT22;7099;53.922;10.728;2024-02-26T08:22:33;1.80;99.90
14049;DHT22;7099;53.922;10.728;2024-02-26T08:26:39;1.90;99.90
14049;DHT22;7099;53.922;10.728;2024-02-26T08:30:45;2.00;99.90
14049;DHT22;7099;53.922;10.728;2024-02-26T08:34:50;2.20;99.90
14049;DHT22;7099;53.922;10.728;2024-02-26T08:38:56;2.30;99.90
14049;DHT22;7099;53.922;10.728;2024-02-26T08:43:01;2.40;99.90
14049;DHT22;7099;53.922;10.728;2024-02-26T08:47:06;2.50;99.90
14049;DHT22;7099;53.922;10.728;2024-02-26T08:51:12;2.70;99.90
14049;DHT22;7099;53.922;10.728;2024-02-26T08:55:18;2.80;99.90
14049;DHT22;7099;53.922;10.728;2024-02-26T08:59:23;3.00;99.90
14049;DHT22;7099;53.922;10.728;2024-02-26T09:03:29;3.10;99.90
14049;DHT22;7099;53.922;10.728;2024-02-26T09:07:34;3.20;99.90
14049;DHT22;7099;53.922;10.728;2024-02-26T09:11:40;3.40;99.90
14049;DHT22;7099;53.922;10.728;2024-02-26T09:15:45;3.40;99.90
14049;DHT22;7099;53.922;10.728;2024-02-26T09:19:51;3.60;99.90
14049;DHT22;7099;53.922;10.728;2024-02-26T09:23:56;3.60;99.90
14049;DHT22;7099;53.922;10.728;2024-02-26T09:28:02;3.80;99.90
14049;DHT22;7099;53.922;10.728;2024-02-26T09:32:08;3.90;99.90
14049;DHT22;7099;53.922;10.728;2024-02-26T09:36:13;4.00;99.90
14049;DHT22;7099;53.922;10.728;2024-02-26T09:40:19;4.10;99.90
14049;DHT22;7099;53.922;10.728;2024-02-26T09:44:24;4.20;99.90
14049;DHT22;7099;53.922;10.728;2024-02-26T09:48:30;4.30;99.90
14049;DHT22;7099;53.922;10.728;2024-02-26T09:52:37;4.40;99.90
14049;DHT22;7099;53.922;10.728;2024-02-26T09:56:43;4.50;99.90
14049;DHT22;7099;53.922;10.728;2024-02-26T10:01:13;4.60;99.90
14049;DHT22;7099;53.922;10.728;2024-02-26T10:05:21;4.80;99.90
14049;DHT22;7099;53.922;10.728;2024-02-26T10:09:28;4.90;99.90
14049;DHT22;7099;53.922;10.728;2024-02-26T10:13:37;5.00;99.90
14049;DHT22;7099;53.922;10.728;2024-02-26T10:17:43;5.00;99.90
14049;DHT22;7099;53.922;10.728;2024-02-26T10:21:49;5.00;99.90
14049;DHT22;7099;53.922;10.728;2024-02-26T10:25:54;5.10;99.90
14049;DHT22;7099;53.922;10.728;2024-02-26T10:30:05;5.20;99.90
14049;DHT22;7099;53.922;10.728;2024-02-26T10:34:23;5.40;99.90
14049;DHT22;7099;53.922;10.728;2024-02-26T10:38:29;5.50;99.90
14049;DHT22;7099;53.922;10.728;2024-02-26T10:42:35;5.60;99.90
14049;DHT22;7099;53.922;10.728;2024-02-26T10:46:41;5.70;99.90
14049;DHT22;7099;53.922;10.728;2024-02-26T10:50:47;5.90;99.90
14049;DHT22;7099;53.922;10.728;2024-02-26T10:54:53;5.90;99.90
14049;DHT22;7099;53.922;10.728;2024-02-26T10:59:03;6.00;99.90
14049;DHT22;7099;53.922;10.728;2024-02-26T11:03:09;6.20;99.90
14049;DHT22;7099;53.922;10.728;2024-02-26T11:07:16;6.20;99.90
14049;DHT22;7099;53.922;10.728;2024-02-26T11:11:22;6.20;99.90
14049;DHT22;7099;53.922;10.728;2024-02-26T11:15:28;6.30;99.90
14049;DHT22;7099;53.922;10.728;2024-02-26T11:19:35;6.40;99.90
14049;DHT22;7099;53.922;10.728;2024-02-26T11:23:42;6.40;99.90
14049;DHT22;7099;53.922;10.728;2024-02-26T11:27:50;6.50;99.90
14049;DHT22;7099;53.922;10.728;2024-02-26T11:31:59;6.50;99.90
14049;DHT22;7099;53.922;10.728;2024-02-26T11:36:11;6.60;99.90
14049;DHT22;7099;53.922;10.728;2024-02-26T11:40:17;6.60;99.90
14049;DHT22;7099;53.922;10.728;2024-02-26T11:44:29;6.60;99.90
14049;DHT22;7099;53.922;10.728;2024-02-26T11:48:35;6.70;99.90
14049;DHT22;7099;53.922;10.728;2024-02-26T11:52:40;6.80;99.90
14049;DHT22;7099;53.922;10.728;2024-02-26T11:56:46;6.90;99.90
14049;DHT22;7099;53.922;10.728;2024-02-26T12:00:51;6.90;99.90
14049;DHT22;7099;53.922;10.728;2024-02-26T12:05:04;6.90;99.90
14049;DHT22;7099;53.922;10.728;2024-02-26T12:09:30;7.00;99.90
14049;DHT22;7099;53.922;10.728;2024-02-26T12:13:49;7.10;99.90
14049;DHT22;7099;53.922;10.728;2024-02-26T12:17:55;7.10;99.90
14049;DHT22;7099;53.922;10.728;2024-02-26T12:22:01;7.20;99.90
14049;DHT22;7099;53.922;10.728;2024-02-26T12:26:06;7.20;99.90
14049;DHT22;7099;53.922;10.728;2024-02-26T12:30:14;7.20;99.90
14049;DHT22;7099;53.922;10.728;2024-02-26T12:34:20;7.20;99.90
14049;DHT22;7099;53.922;10.728;2024-02-26T12:38:26;7.10;99.90
14049;DHT22;7099;53.922;10.728;2024-02-26T12:42:32;7.10;99.90
14049;DHT22;7099;53.922;10.728;2024-02-26T12:46:44;7.10;99.90
14049;DHT22;7099;53.922;10.728;2024-02-26T12:50:49;7.00;99.90
14049;DHT22;7099;53.922;10.728;2024-02-26T12:54:55;7.10;99.90
14049;DHT22;7099;53.922;10.728;2024-02-26T12:59:00;7.20;99.90
14049;DHT22;7099;53.922;10.728;2024-02-26T13:03:06;7.20;99.90
14049;DHT22;7099;53.922;10.728;2024-02-26T13:07:12;7.20;99.90
14049;DHT22;7099;53.922;10.728;2024-02-26T13:11:17;7.10;99.90
14049;DHT22;7099;53.922;10.728;2024-02-26T13:15:23;7.10;99.90
14049;DHT22;7099;53.922;10.728;2024-02-26T13:19:28;7.10;99.90
14049;DHT22;7099;53.922;10.728;2024-02-26T13:23:35;7.10;99.90
14049;DHT22;7099;53.922;10.728;2024-02-26T13:27:40;7.20;99.90
14049;DHT22;7099;53.922;10.728;2024-02-26T13:31:45;7.30;99.90
14049;DHT22;7099;53.922;10.728;2024-02-26T13:35:58;7.30;99.90
14049;DHT22;7099;53.922;10.728;2024-02-26T13:40:11;7.40;99.90
14049;DHT22;7099;53.922;10.728;2024-02-26T13:44:17;7.50;99.90
14049;DHT22;7099;53.922;10.728;2024-02-26T13:48:24;7.50;99.90
14049;DHT22;7099;53.922;10.728;2024-02-26T13:52:31;7.60;99.90
14049;DHT22;7099;53.922;10.728;2024-02-26T13:56:38;7.60;99.90
14049;DHT22;7099;53.922;10.728;2024-02-26T14:00:43;7.70;99.90
14049;DHT22;7099;53.922;10.728;2024-02-26T14:04:49;7.70;99.90
14049;DHT22;7099;53.922;10.728;2024-02-26T14:08:54;7.70;99.90
14049;DHT22;7099;53.922;10.728;2024-02-26T14:13:00;7.60;99.90
14049;DHT22;7099;53.922;10.728;2024-02-26T14:17:06;7.50;99.90
14049;DHT22;7099;53.922;10.728;2024-02-26T14:21:11;7.50;99.90
14049;DHT22;7099;53.922;10.728;2024-02-26T14:25:17;7.50;99.90
14049;DHT22;7099;53.922;10.728;2024-02-26T14:29:22;7.60;99.90
14049;DHT22;7099;53.922;10.728;2024-02-26T14:33:28;7.60;99.90
14049;DHT22;7099;53.922;10.728;2024-02-26T14:37:35;7.70;99.90
14049;DHT22;7099;53.922;10.728;2024-02-26T14:41:40;7.80;99.90
14049;DHT22;7099;53.922;10.728;2024-02-26T14:45:46;7.70;99.90
14049;DHT22;7099;53.922;10.728;2024-02-26T14:49:51;7.70;99.90
14049;DHT22;7099;53.922;10.728;2024-02-26T14:53:57;7.70;99.90
14049;DHT22;7099;53.922;10.728;2024-02-26T14:58:04;7.60;99.90
14049;DHT22;7099;53.922;10.728;2024-02-26T15:02:09;7.50;99.90
14049;DHT22;7099;53.922;10.728;2024-02-26T15:06:15;7.50;99.90
14049;DHT22;7099;53.922;10.728;2024-02-26T15:10:20;7.40;99.90
14049;DHT22;7099;53.922;10.728;2024-02-26T15:14:25;7.50;99.90
14049;DHT22;7099;53.922;10.728;2024-02-26T15:18:31;7.40;99.90
14049;DHT22;7099;53.922;10.728;2024-02-26T15:22:37;7.40;99.90
14049;DHT22;7099;53.922;10.728;2024-02-26T15:26:42;7.50;99.90
14049;DHT22;7099;53.922;10.728;2024-02-26T15:30:48;7.40;99.90
14049;DHT22;7099;53.922;10.728;2024-02-26T15:34:54;7.40;99.90
14049;DHT22;7099;53.922;10.728;2024-02-26T15:38:59;7.30;99.90
14049;DHT22;7099;53.922;10.728;2024-02-26T15:43:05;7.20;99.90
14049;DHT22;7099;53.922;10.728;2024-02-26T15:47:10;7.10;99.90
14049;DHT22;7099;53.922;10.728;2024-02-26T15:51:21;7.10;99.90
14049;DHT22;7099;53.922;10.728;2024-02-26T15:55:27;7.00;99.90
14049;DHT22;7099;53.922;10.728;2024-02-26T15:59:32;7.00;99.90
14049;DHT22;7099;53.922;10.728;2024-02-26T16:03:39;6.90;99.90
14049;DHT22;7099;53.922;10.728;2024-02-26T16:07:49;6.70;99.90
14049;DHT22;7099;53.922;10.728;2024-02-26T16:12:00;6.70;99.90
14049;DHT22;7099;53.922;10.728;2024-02-26T16:16:13;6.70;99.90
14049;DHT22;7099;53.922;10.728;2024-02-26T16:20:22;6.60;99.90
14049;DHT22;7099;53.922;10.728;2024-02-26T16:24:29;6.50;99.90
14049;DHT22;7099;53.922;10.728;2024-02-26T16:28:35;6.50;99.90
14049;DHT22;7099;53.922;10.728;2024-02-26T16:32:40;6.40;99.90
14049;DHT22;7099;53.922;10.728;2024-02-26T16:36:46;6.30;99.90
14049;DHT22;7099;53.922;10.728;2024-02-26T16:40:52;6.30;99.90
14049;DHT22;7099;53.922;10.728;2024-02-26T16:44:57;6.20;99.90
14049;DHT22;7099;53.922;10.728;2024-02-26T16:49:04;6.20;99.90
14049;DHT22;7099;53.922;10.728;2024-02-26T16:53:13;6.10;99.90
14049;DHT22;7099;53.922;10.728;2024-02-26T16:57:18;6.00;99.90
14049;DHT22;7099;53.922;10.728;2024-02-26T17:01:25;6.00;99.90
14049;DHT22;7099;53.922;10.728;2024-02-26T17:05:30;5.90;99.90
14049;DHT22;7099;53.922;10.728;2024-02-26T17:09:36;5.90;99.90
14049;DHT22;7099;53.922;10.728;2024-02-26T17:13:41;5.90;99.90
14049;DHT22;7099;53.922;10.728;2024-02-26T17:17:47;5.80;99.90
14049;DHT22;7099;53.922;10.728;2024-02-26T17:21:53;5.70;99.90
14049;DHT22;7099;53.922;10.728;2024-02-26T17:25:58;5.70;99.90
14049;DHT22;7099;53.922;10.728;2024-02-26T17:30:07;5.60;99.90
14049;DHT22;7099;53.922;10.728;2024-02-26T17:34:12;5.60;99.90
14049;DHT22;7099;53.922;10.728;2024-02-26T17:38:18;5.50;99.90
14049;DHT22;7099;53.922;10.728;2024-02-26T17:42:23;5.50;99.90
14049;DHT22;7099;53.922;10.728;2024-02-26T17:46:29;5.40;99.90
14049;DHT22;7099;53.922;10.728;2024-02-26T17:50:34;5.30;99.90
14049;DHT22;7099;53.922;10.728;2024-02-26T17:54:39;5.30;99.90
14049;DHT22;7099;53.922;10.728;2024-02-26T17:58:45;5.30;99.90
14049;DHT22;7099;53.922;10.728;2024-02-26T18:02:50;5.20;99.90
14049;DHT22;7099;53.922;10.728;2024-02-26T18:06:57;5.10;99.90
14049;DHT22;7099;53.922;10.728;2024-02-26T18:11:03;5.10;99.90
14049;DHT22;7099;53.922;10.728;2024-02-26T18:15:09;5.10;99.90
14049;DHT22;7099;53.922;10.728;2024-02-26T18:19:15;5.10;99.90
14049;DHT22;7099;53.922;10.728;2024-02-26T18:23:20;5.00;99.90
14049;DHT22;7099;53.922;10.728;2024-02-26T18:27:26;5.00;99.90
14049;DHT22;7099;53.922;10.728;2024-02-26T18:31:32;5.00;99.90
14049;DHT22;7099;53.922;10.728;2024-02-26T18:35:37;4.90;99.90
14049;DHT22;7099;53.922;10.728;2024-02-26T18:39:43;4.90;99.90
14049;DHT22;7099;53.922;10.728;2024-02-26T18:43:49;4.80;99.90
14049;DHT22;7099;53.922;10.728;2024-02-26T18:47:56;4.80;99.90
14049;DHT22;7099;53.922;10.728;2024-02-26T18:52:02;4.70;99.90
14049;DHT22;7099;53.922;10.728;2024-02-26T18:56:08;4.70;99.90
14049;DHT22;7099;53.922;10.728;2024-02-26T19:00:13;4.70;99.90
14049;DHT22;7099;53.922;10.728;2024-02-26T19:04:19;4.60;99.90
14049;DHT22;7099;53.922;10.728;2024-02-26T19:08:25;4.60;99.90
14049;DHT22;7099;53.922;10.728;2024-02-26T19:12:31;4.50;99.90
14049;DHT22;7099;53.922;10.728;2024-02-26T19:16:36;4.50;99.90
14049;DHT22;7099;53.922;10.728;2024-02-26T19:20:44;4.40;99.90
14049;DHT22;7099;53.922;10.728;2024-02-26T19:24:50;4.40;99.90
14049;DHT22;7099;53.922;10.728;2024-02-26T19:28:56;4.30;99.90
14049;DHT22;7099;53.922;10.728;2024-02-26T19:33:01;4.30;99.90
14049;DHT22;7099;53.922;10.728;2024-02-26T19:37:08;4.30;99.90
14049;DHT22;7099;53.922;10.728;2024-02-26T19:41:14;4.20;99.90
14049;DHT22;7099;53.922;10.728;2024-02-26T19:45:20;4.20;99.90
14049;DHT22;7099;53.922;10.728;2024-02-26T19:49:25;4.10;99.90
14049;DHT22;7099;53.922;10.728;2024-02-26T19:53:30;4.10;99.90
14049;DHT22;7099;53.922;10.728;2024-02-26T19:57:36;4.10;99.90
14049;DHT22;7099;53.922;10.728;2024-02-26T20:01:41;4.10;99.90
14049;DHT22;7099;53.922;10.728;2024-02-26T20:05:47;4.10;99.90
14049;DHT22;7099;53.922;10.728;2024-02-26T20:09:52;4.10;99.90
14049;DHT22;7099;53.922;10.728;2024-02-26T20:13:58;4.10;99.90
14049;DHT22;7099;53.922;10.728;2024-02-26T20:18:03;4.10;99.90
14049;DHT22;7099;53.922;10.728;2024-02-26T20:22:10;4.10;99.90
14049;DHT22;7099;53.922;10.728;2024-02-26T20:26:16;4.10;99.90
14049;DHT22;7099;53.922;10.728;2024-02-26T20:30:21;4.10;99.90
14049;DHT22;7099;53.922;10.728;2024-02-26T20:34:31;4.10;99.90
14049;DHT22;7099;53.922;10.728;2024-02-26T20:38:36;4.10;99.90
14049;DHT22;7099;53.922;10.728;2024-02-26T20:42:41;4.20;99.90
14049;DHT22;7099;53.922;10.728;2024-02-26T20:46:47;4.20;99.90
14049;DHT22;7099;53.922;10.728;2024-02-26T20:50:52;4.20;99.90
14049;DHT22;7099;53.922;10.728;2024-02-26T20:54:57;4.20;99.90
14049;DHT22;7099;53.922;10.728;2024-02-26T20:59:03;4.30;99.90
14049;DHT22;7099;53.922;10.728;2024-02-26T21:03:09;4.30;99.90
14049;DHT22;7099;53.922;10.728;2024-02-26T21:07:15;4.30;99.90
14049;DHT22;7099;53.922;10.728;2024-02-26T21:11:21;4.30;99.90
14049;DHT22;7099;53.922;10.728;2024-02-26T21:15:27;4.40;99.90
14049;DHT22;7099;53.922;10.728;2024-02-26T21:19:33;4.40;99.90
14049;DHT22;7099;53.922;10.728;2024-02-26T21:23:39;4.40;99.90
14049;DHT22;7099;53.922;10.728;2024-02-26T21:27:44;4.40;99.90
14049;DHT22;7099;53.922;10.728;2024-02-26T21:31:50;4.40;99.90
14049;DHT22;7099;53.922;10.728;2024-02-26T21:35:57;4.50;99.90
14049;DHT22;7099;53.922;10.728;2024-02-26T21:40:03;4.50;99.90
14049;DHT22;7099;53.922;10.728;2024-02-26T21:44:08;4.60;99.90
14049;DHT22;7099;53.922;10.728;2024-02-26T21:48:14;4.60;99.90
14049;DHT22;7099;53.922;10.728;2024-02-26T21:52:19;4.60;99.90
14049;DHT22;7099;53.922;10.728;2024-02-26T21:56:25;4.60;99.90
14049;DHT22;7099;53.922;10.728;2024-02-26T22:00:30;4.60;99.90
14049;DHT22;7099;53.922;10.728;2024-02-26T22:04:36;4.60;99.90
14049;DHT22;7099;53.922;10.728;2024-02-26T22:08:41;4.70;99.90
14049;DHT22;7099;53.922;10.728;2024-02-26T22:12:46;4.70;99.90
14049;DHT22;7099;53.922;10.728;2024-02-26T22:16:52;4.70;99.90
14049;DHT22;7099;53.922;10.728;2024-02-26T22:20:57;4.70;99.90
14049;DHT22;7099;53.922;10.728;2024-02-26T22:25:06;4.70;99.90
14049;DHT22;7099;53.922;10.728;2024-02-26T22:29:11;4.70;99.90
14049;DHT22;7099;53.922;10.728;2024-02-26T22:33:17;4.70;99.90
14049;DHT22;7099;53.922;10.728;2024-02-26T22:37:22;4.70;99.90
14049;DHT22;7099;53.922;10.728;2024-02-26T22:41:28;4.80;99.90
14049;DHT22;7099;53.922;10.728;2024-02-26T22:45:33;4.80;99.90
14049;DHT22;7099;53.922;10.728;2024-02-26T22:49:39;4.70;99.90
14049;DHT22;7099;53.922;10.728;2024-02-26T22:53:45;4.70;99.90
14049;DHT22;7099;53.922;10.728;2024-02-26T22:57:50;4.70;99.90
14049;DHT22;7099;53.922;10.728;2024-02-26T23:01:56;4.70;99.90
14049;DHT22;7099;53.922;10.728;2024-02-26T23:06:02;4.70;99.90
14049;DHT22;7099;53.922;10.728;2024-02-26T23:10:10;4.70;99.90
14049;DHT22;7099;53.922;10.728;2024-02-26T23:14:18;4.70;99.90
14049;DHT22;7099;53.922;10.728;2024-02-26T23:18:23;4.70;99.90
14049;DHT22;7099;53.922;10.728;2024-02-26T23:22:29;4.70;99.90
14049;DHT22;7099;53.922;10.728;2024-02-26T23:26:35;4.60;99.90
14049;DHT22;7099;53.922;10.728;2024-02-26T23:30:40;4.70;99.90
14049;DHT22;7099;53.922;10.728;2024-02-26T23:34:46;4.60;99.90
14049;DHT22;7099;53.922;10.728;2024-02-26T23:38:51;4.60;99.90
14049;DHT22;7099;53.922;10.728;2024-02-26T23:42:59;4.50;99.90
14049;DHT22;7099;53.922;10.728;2024-02-26T23:47:05;4.50;99.90
14049;DHT22;7099;53.922;10.728;2024-02-26T23:51:10;4.50;99.90
14049;DHT22;7099;53.922;10.728;2024-02-26T23:55:16;4.50;99.90
14049;DHT22;7099;53.922;10.728;2024-02-26T23:59:22;4.50;99.90
